KLM867 EHAM-UBBB
Flight info
| Callsign | KLM867 |
|---|---|
| Flight time | N/A |
| Altitude | 39000 |
| Route | ARNEM L620 NOMKA DCT OMELO DCT OMIFU DCT SAGAN DCT ETNOG DCT ROMAG DCT UDROS UM859 KARDE UL851 TBN UM11 REBLO M11 MATAL T916 SUBUT T923 ERLEV |
| Aircraft | B772/H-SDE2E3FGHIJ5LORVWXY/LB1D1 |
Departure
| Time | 2026-05-05 10:22 |
|---|---|
| Airport | Amsterdam Airport Schiphol (EHAM) |
Arrival
| Time | N/A |
|---|---|
| Airport | Heydar Aliyev International Airport (UBBB) |
| Time | Latitude | Longitude | Altitude | Speed | Heading |
|---|---|---|---|---|---|
| 2026-05-05 10:22 | 52.46493 | 4.75930 | 5642 ft | 261 kts | 38° |
| 2026-05-05 10:22 | 52.47663 | 4.78217 | 6368 ft | 269 kts | 63° |
| 2026-05-05 10:22 | 52.48178 | 4.81136 | 7121 ft | 275 kts | 81° |
| 2026-05-05 10:22 | 52.48381 | 4.84258 | 7922 ft | 280 kts | 84° |
| 2026-05-05 10:23 | 52.48528 | 4.87433 | 8678 ft | 284 kts | 88° |
| 2026-05-05 10:23 | 52.48173 | 4.90610 | 9430 ft | 290 kts | 112° |
| 2026-05-05 10:23 | 52.47024 | 4.93299 | 10162 ft | 295 kts | 135° |
| 2026-05-05 10:23 | 52.45393 | 4.95475 | 10612 ft | 311 kts | 143° |
| 2026-05-05 10:24 | 52.43576 | 4.97582 | 11014 ft | 327 kts | 144° |
| 2026-05-05 10:24 | 52.41686 | 4.99747 | 11424 ft | 343 kts | 144° |
| 2026-05-05 10:24 | 52.39696 | 5.02040 | 11856 ft | 358 kts | 144° |
| 2026-05-05 10:24 | 52.37628 | 5.04429 | 12267 ft | 373 kts | 144° |
| 2026-05-05 10:25 | 52.35521 | 5.07100 | 12737 ft | 385 kts | 136° |
| 2026-05-05 10:25 | 52.33736 | 5.10363 | 13331 ft | 391 kts | 125° |
| 2026-05-05 10:25 | 52.32359 | 5.14154 | 14096 ft | 393 kts | 114° |
| 2026-05-05 10:25 | 52.31319 | 5.18263 | 14859 ft | 395 kts | 110° |
| 2026-05-05 10:26 | 52.30324 | 5.22451 | 15556 ft | 400 kts | 111° |
| 2026-05-05 10:26 | 52.29308 | 5.26728 | 16221 ft | 406 kts | 111° |
| 2026-05-05 10:26 | 52.28287 | 5.31014 | 16923 ft | 409 kts | 111° |
| 2026-05-05 10:26 | 52.27246 | 5.35371 | 17646 ft | 412 kts | 112° |
| 2026-05-05 10:27 | 52.26211 | 5.39692 | 18313 ft | 416 kts | 112° |
| 2026-05-05 10:27 | 52.25143 | 5.44136 | 18958 ft | 420 kts | 112° |
| 2026-05-05 10:27 | 52.24079 | 5.48559 | 19531 ft | 426 kts | 112° |
| 2026-05-05 10:27 | 52.22981 | 5.53110 | 20125 ft | 431 kts | 112° |
| 2026-05-05 10:28 | 52.21880 | 5.57668 | 20789 ft | 434 kts | 112° |
| 2026-05-05 10:28 | 52.20780 | 5.62208 | 21432 ft | 437 kts | 112° |
| 2026-05-05 10:28 | 52.19659 | 5.66824 | 21975 ft | 442 kts | 113° |
| 2026-05-05 10:28 | 52.18501 | 5.71587 | 22500 ft | 448 kts | 113° |
| 2026-05-05 10:29 | 52.17356 | 5.76282 | 23056 ft | 452 kts | 113° |
| 2026-05-05 10:29 | 52.16223 | 5.80922 | 23603 ft | 455 kts | 113° |
| 2026-05-05 10:29 | 52.15046 | 5.85726 | 24146 ft | 459 kts | 113° |
| 2026-05-05 10:29 | 52.13849 | 5.90608 | 24682 ft | 463 kts | 114° |
| 2026-05-05 10:30 | 52.12655 | 5.95462 | 25182 ft | 467 kts | 114° |
| 2026-05-05 10:30 | 52.11452 | 6.00343 | 25663 ft | 472 kts | 114° |
| 2026-05-05 10:30 | 52.10217 | 6.05400 | 26196 ft | 475 kts | 111° |
| 2026-05-05 10:30 | 52.09336 | 6.10543 | 26688 ft | 481 kts | 103° |
| 2026-05-05 10:31 | 52.08748 | 6.15930 | 27118 ft | 486 kts | 101° |
| 2026-05-05 10:31 | 52.08187 | 6.21415 | 27602 ft | 490 kts | 101° |
| 2026-05-05 10:31 | 52.07630 | 6.26836 | 28078 ft | 493 kts | 101° |
| 2026-05-05 10:31 | 52.07060 | 6.32339 | 28509 ft | 497 kts | 101° |
| 2026-05-05 10:32 | 52.06482 | 6.37875 | 28872 ft | 502 kts | 102° |
| 2026-05-05 10:32 | 52.05890 | 6.43498 | 29285 ft | 506 kts | 102° |
| 2026-05-05 10:32 | 52.05295 | 6.49117 | 29748 ft | 508 kts | 102° |
| 2026-05-05 10:32 | 52.04693 | 6.54770 | 30158 ft | 511 kts | 102° |
| 2026-05-05 10:33 | 52.04086 | 6.60441 | 30666 ft | 512 kts | 102° |
| 2026-05-05 10:33 | 52.03471 | 6.66161 | 31250 ft | 511 kts | 103° |
| 2026-05-05 10:33 | 52.02859 | 6.71814 | 31798 ft | 511 kts | 103° |
| 2026-05-05 10:33 | 52.02237 | 6.77533 | 32319 ft | 511 kts | 104° |
| 2026-05-05 10:34 | 52.01452 | 6.83078 | 32815 ft | 508 kts | 108° |
| 2026-05-05 10:34 | 52.00559 | 6.88581 | 33339 ft | 507 kts | 108° |
| 2026-05-05 10:34 | 51.99661 | 6.94100 | 33836 ft | 507 kts | 109° |
| 2026-05-05 10:34 | 51.98757 | 6.99676 | 34316 ft | 507 kts | 109° |
| 2026-05-05 10:35 | 51.97873 | 7.05138 | 34784 ft | 507 kts | 109° |
| 2026-05-05 10:35 | 51.96971 | 7.10688 | 35200 ft | 506 kts | 109° |
| 2026-05-05 10:35 | 51.96018 | 7.16137 | 35526 ft | 504 kts | 111° |
| 2026-05-05 10:35 | 51.94999 | 7.21556 | 35830 ft | 503 kts | 111° |
| 2026-05-05 10:36 | 51.93975 | 7.26987 | 36130 ft | 502 kts | 110° |
| 2026-05-05 10:36 | 51.92967 | 7.32335 | 36380 ft | 501 kts | 110° |
| 2026-05-05 10:36 | 51.91958 | 7.37697 | 36611 ft | 500 kts | 110° |
| 2026-05-05 10:36 | 51.90944 | 7.43079 | 36901 ft | 500 kts | 110° |
| 2026-05-05 10:37 | 51.89941 | 7.48394 | 37183 ft | 500 kts | 110° |
| 2026-05-05 10:37 | 51.88934 | 7.53726 | 37460 ft | 500 kts | 110° |
| 2026-05-05 10:37 | 51.87912 | 7.59130 | 37779 ft | 499 kts | 109° |
| 2026-05-05 10:37 | 51.86897 | 7.64488 | 38095 ft | 498 kts | 110° |
| 2026-05-05 10:38 | 51.85880 | 7.69839 | 38322 ft | 498 kts | 110° |
| 2026-05-05 10:38 | 51.84943 | 7.75191 | 38508 ft | 500 kts | 106° |
| 2026-05-05 10:38 | 51.84169 | 7.80709 | 38711 ft | 501 kts | 105° |
| 2026-05-05 10:38 | 51.83411 | 7.86205 | 38870 ft | 501 kts | 105° |
| 2026-05-05 10:39 | 51.81872 | 7.97179 | 38884 ft | 500 kts | 105° |
| 2026-05-05 10:39 | 51.80310 | 8.08117 | 38884 ft | 500 kts | 105° |
| 2026-05-05 10:40 | 51.78732 | 8.19014 | 38877 ft | 500 kts | 105° |
| 2026-05-05 10:40 | 51.77129 | 8.29970 | 38879 ft | 500 kts | 105° |
| 2026-05-05 10:41 | 51.75581 | 8.40915 | 38875 ft | 500 kts | 104° |
| 2026-05-05 10:41 | 51.74077 | 8.51904 | 38888 ft | 502 kts | 105° |
| 2026-05-05 10:42 | 51.71783 | 8.68434 | 38884 ft | 501 kts | 106° |
| 2026-05-05 10:43 | 51.70246 | 8.79390 | 38882 ft | 501 kts | 105° |
| 2026-05-05 10:43 | 51.68693 | 8.90367 | 38874 ft | 501 kts | 106° |
| 2026-05-05 10:44 | 51.67128 | 9.01349 | 38875 ft | 501 kts | 106° |
| 2026-05-05 10:44 | 51.65566 | 9.12228 | 38873 ft | 500 kts | 106° |
| 2026-05-05 10:45 | 51.63969 | 9.23269 | 38870 ft | 503 kts | 106° |
| 2026-05-05 10:45 | 51.62384 | 9.34150 | 38872 ft | 502 kts | 106° |
| 2026-05-05 10:46 | 51.60768 | 9.45157 | 38875 ft | 502 kts | 106° |
| 2026-05-05 10:46 | 51.59155 | 9.56076 | 38875 ft | 502 kts | 106° |
| 2026-05-05 10:47 | 51.57531 | 9.66990 | 38875 ft | 502 kts | 107° |
| 2026-05-05 10:47 | 51.55902 | 9.77864 | 38876 ft | 503 kts | 107° |
| 2026-05-05 10:48 | 51.54245 | 9.88845 | 38875 ft | 503 kts | 107° |
| 2026-05-05 10:48 | 51.52593 | 9.99720 | 38862 ft | 503 kts | 107° |
| 2026-05-05 10:49 | 51.50934 | 10.10569 | 38880 ft | 501 kts | 107° |
| 2026-05-05 10:49 | 51.49250 | 10.21499 | 38849 ft | 503 kts | 107° |
| 2026-05-05 10:50 | 51.47560 | 10.32404 | 38850 ft | 505 kts | 107° |
| 2026-05-05 10:50 | 51.45873 | 10.43214 | 38855 ft | 504 kts | 107° |
| 2026-05-05 10:51 | 51.44157 | 10.54137 | 38864 ft | 504 kts | 107° |
| 2026-05-05 10:51 | 51.42438 | 10.65004 | 38849 ft | 505 kts | 107° |
| 2026-05-05 10:52 | 51.40744 | 10.75650 | 38847 ft | 503 kts | 108° |
| 2026-05-05 10:52 | 51.39009 | 10.86480 | 38842 ft | 503 kts | 108° |
| 2026-05-05 10:53 | 51.37260 | 10.97326 | 38849 ft | 506 kts | 108° |
| 2026-05-05 10:53 | 51.35498 | 11.08181 | 38851 ft | 504 kts | 108° |
| 2026-05-05 10:54 | 51.33723 | 11.19046 | 38851 ft | 505 kts | 108° |
| 2026-05-05 10:54 | 51.31946 | 11.29859 | 38854 ft | 505 kts | 108° |
| 2026-05-05 10:55 | 51.30162 | 11.40645 | 38841 ft | 504 kts | 108° |
| 2026-05-05 10:55 | 51.28357 | 11.51484 | 38848 ft | 505 kts | 108° |
| 2026-05-05 10:56 | 51.26544 | 11.62303 | 38848 ft | 505 kts | 108° |
| 2026-05-05 10:56 | 51.24720 | 11.73121 | 38846 ft | 504 kts | 108° |
| 2026-05-05 10:57 | 51.22901 | 11.83842 | 38838 ft | 503 kts | 108° |
| 2026-05-05 10:57 | 51.21059 | 11.94638 | 38842 ft | 504 kts | 108° |
| 2026-05-05 10:58 | 51.19213 | 12.05384 | 38837 ft | 503 kts | 108° |
| 2026-05-05 10:58 | 51.17363 | 12.16087 | 38852 ft | 503 kts | 108° |
| 2026-05-05 10:59 | 51.15494 | 12.26833 | 38834 ft | 505 kts | 108° |
| 2026-05-05 10:59 | 51.13622 | 12.37542 | 38848 ft | 503 kts | 109° |
| 2026-05-05 11:00 | 51.11739 | 12.48239 | 38861 ft | 503 kts | 108° |
| 2026-05-05 11:00 | 51.09849 | 12.58916 | 38865 ft | 503 kts | 108° |
| 2026-05-05 11:01 | 51.07952 | 12.69564 | 38871 ft | 504 kts | 109° |
| 2026-05-05 11:01 | 51.06019 | 12.80357 | 38860 ft | 504 kts | 109° |
| 2026-05-05 11:02 | 51.04102 | 12.90999 | 38870 ft | 502 kts | 109° |
| 2026-05-05 11:02 | 51.02163 | 13.01691 | 38860 ft | 503 kts | 109° |
| 2026-05-05 11:03 | 51.00220 | 13.12347 | 38862 ft | 502 kts | 109° |
| 2026-05-05 11:03 | 50.98279 | 13.22931 | 38854 ft | 502 kts | 109° |
| 2026-05-05 11:04 | 50.96327 | 13.33512 | 38869 ft | 502 kts | 109° |
| 2026-05-05 11:04 | 50.94358 | 13.44128 | 38860 ft | 501 kts | 109° |
| 2026-05-05 11:05 | 50.92390 | 13.54675 | 38860 ft | 503 kts | 109° |
| 2026-05-05 11:05 | 50.90395 | 13.65303 | 38844 ft | 502 kts | 109° |
| 2026-05-05 11:06 | 50.88406 | 13.75845 | 38854 ft | 502 kts | 109° |
| 2026-05-05 11:06 | 50.86407 | 13.86382 | 38847 ft | 501 kts | 109° |
| 2026-05-05 11:07 | 50.84327 | 13.96926 | 38848 ft | 502 kts | 115° |
| 2026-05-05 11:07 | 50.81074 | 14.06513 | 38850 ft | 496 kts | 125° |
| 2026-05-05 11:08 | 50.77404 | 14.15764 | 38845 ft | 494 kts | 126° |
| 2026-05-05 11:08 | 50.73750 | 14.24866 | 38842 ft | 495 kts | 126° |
| 2026-05-05 11:09 | 50.70071 | 14.33962 | 38845 ft | 493 kts | 126° |
| 2026-05-05 11:09 | 50.66363 | 14.43079 | 38848 ft | 494 kts | 126° |
| 2026-05-05 11:10 | 50.62656 | 14.52152 | 38843 ft | 494 kts | 125° |
| 2026-05-05 11:10 | 50.58939 | 14.61214 | 38843 ft | 492 kts | 125° |
| 2026-05-05 11:11 | 50.55218 | 14.70250 | 38832 ft | 493 kts | 126° |
| 2026-05-05 11:11 | 50.51500 | 14.79245 | 38821 ft | 492 kts | 126° |
| 2026-05-05 11:12 | 50.47773 | 14.88232 | 38825 ft | 492 kts | 126° |
| 2026-05-05 11:12 | 50.44027 | 14.97233 | 38826 ft | 492 kts | 126° |
| 2026-05-05 11:13 | 50.40284 | 15.06194 | 38825 ft | 493 kts | 126° |
| 2026-05-05 11:13 | 50.36531 | 15.15151 | 38817 ft | 491 kts | 126° |
| 2026-05-05 11:14 | 50.32789 | 15.24048 | 38818 ft | 493 kts | 126° |
| 2026-05-05 11:14 | 50.29018 | 15.32985 | 38813 ft | 490 kts | 126° |
| 2026-05-05 11:15 | 50.25261 | 15.41859 | 38816 ft | 493 kts | 126° |
| 2026-05-05 11:15 | 50.21474 | 15.50774 | 38815 ft | 491 kts | 126° |
| 2026-05-05 11:16 | 50.17705 | 15.59617 | 38818 ft | 492 kts | 126° |
| 2026-05-05 11:16 | 50.13927 | 15.68450 | 38814 ft | 490 kts | 127° |
| 2026-05-05 11:17 | 50.10143 | 15.77269 | 38816 ft | 491 kts | 127° |
| 2026-05-05 11:17 | 50.06360 | 15.86056 | 38816 ft | 489 kts | 127° |
| 2026-05-05 11:18 | 50.02579 | 15.94809 | 38815 ft | 490 kts | 127° |
| 2026-05-05 11:18 | 49.99068 | 16.03843 | 38828 ft | 492 kts | 120° |
| 2026-05-05 11:19 | 49.95880 | 16.13292 | 38839 ft | 492 kts | 120° |
| 2026-05-05 11:19 | 49.92682 | 16.22632 | 38849 ft | 493 kts | 120° |
| 2026-05-05 11:20 | 49.89431 | 16.32019 | 38858 ft | 493 kts | 120° |
| 2026-05-05 11:20 | 49.86167 | 16.41369 | 38863 ft | 493 kts | 120° |
| 2026-05-05 11:21 | 49.82911 | 16.50644 | 38867 ft | 492 kts | 120° |
| 2026-05-05 11:21 | 49.79642 | 16.59910 | 38872 ft | 491 kts | 120° |
| 2026-05-05 11:22 | 49.76358 | 16.69179 | 38868 ft | 490 kts | 121° |
| 2026-05-05 11:22 | 49.73079 | 16.78400 | 38865 ft | 491 kts | 121° |
| 2026-05-05 11:23 | 49.69774 | 16.87660 | 38861 ft | 491 kts | 121° |
| 2026-05-05 11:23 | 49.66492 | 16.96820 | 38860 ft | 490 kts | 121° |
| 2026-05-05 11:24 | 49.63192 | 17.05997 | 38859 ft | 491 kts | 121° |
| 2026-05-05 11:24 | 49.59878 | 17.15179 | 38861 ft | 491 kts | 121° |
| 2026-05-05 11:25 | 49.56554 | 17.24358 | 38862 ft | 490 kts | 121° |
| 2026-05-05 11:25 | 49.53234 | 17.33490 | 38868 ft | 489 kts | 121° |
| 2026-05-05 11:26 | 49.49923 | 17.42571 | 38867 ft | 488 kts | 121° |
| 2026-05-05 11:26 | 49.46600 | 17.51649 | 38862 ft | 489 kts | 121° |
| 2026-05-05 11:27 | 49.43250 | 17.60768 | 38873 ft | 488 kts | 121° |
| 2026-05-05 11:27 | 49.39933 | 17.69767 | 38874 ft | 487 kts | 122° |
| 2026-05-05 11:28 | 49.36592 | 17.78802 | 38888 ft | 487 kts | 121° |
| 2026-05-05 11:28 | 49.33249 | 17.87808 | 38890 ft | 488 kts | 121° |
| 2026-05-05 11:29 | 49.29892 | 17.96823 | 38901 ft | 487 kts | 121° |
| 2026-05-05 11:29 | 49.26514 | 18.05862 | 38903 ft | 488 kts | 121° |
| 2026-05-05 11:30 | 49.23161 | 18.14802 | 38920 ft | 487 kts | 121° |
| 2026-05-05 11:30 | 49.19779 | 18.23791 | 38930 ft | 487 kts | 121° |
| 2026-05-05 11:31 | 49.16399 | 18.32741 | 38925 ft | 488 kts | 121° |
| 2026-05-05 11:31 | 49.12989 | 18.41660 | 38933 ft | 486 kts | 122° |
| 2026-05-05 11:32 | 49.09551 | 18.50527 | 38937 ft | 487 kts | 122° |
| 2026-05-05 11:32 | 49.06089 | 18.59430 | 38948 ft | 488 kts | 122° |
| 2026-05-05 11:33 | 49.02631 | 18.68296 | 38957 ft | 488 kts | 122° |
| 2026-05-05 11:33 | 48.99175 | 18.77130 | 38977 ft | 487 kts | 122° |
| 2026-05-05 11:34 | 48.95701 | 18.85981 | 38976 ft | 487 kts | 122° |
| 2026-05-05 11:34 | 48.92227 | 18.94803 | 38977 ft | 487 kts | 122° |
| 2026-05-05 11:35 | 48.88736 | 19.03638 | 38984 ft | 488 kts | 122° |
| 2026-05-05 11:35 | 48.85239 | 19.12460 | 38991 ft | 487 kts | 122° |
| 2026-05-05 11:36 | 48.81752 | 19.21229 | 38985 ft | 487 kts | 122° |
| 2026-05-05 11:36 | 48.78239 | 19.30032 | 38975 ft | 487 kts | 122° |
| 2026-05-05 11:37 | 48.74744 | 19.38761 | 38978 ft | 488 kts | 122° |
| 2026-05-05 11:37 | 48.71227 | 19.47519 | 38989 ft | 487 kts | 122° |
| 2026-05-05 11:38 | 48.67688 | 19.56300 | 38996 ft | 488 kts | 122° |
| 2026-05-05 11:38 | 48.64180 | 19.64977 | 38995 ft | 488 kts | 122° |
| 2026-05-05 11:39 | 48.60624 | 19.73745 | 38999 ft | 488 kts | 122° |
| 2026-05-05 11:39 | 48.57088 | 19.82435 | 38995 ft | 487 kts | 122° |
| 2026-05-05 11:40 | 48.53553 | 19.91092 | 38989 ft | 487 kts | 122° |
| 2026-05-05 11:40 | 48.49997 | 19.99775 | 38985 ft | 487 kts | 122° |
| 2026-05-05 11:41 | 48.46460 | 20.08382 | 38979 ft | 487 kts | 122° |
| 2026-05-05 11:41 | 48.42892 | 20.17037 | 38977 ft | 487 kts | 122° |
| 2026-05-05 11:42 | 48.39323 | 20.25668 | 38970 ft | 488 kts | 122° |
| 2026-05-05 11:42 | 48.35721 | 20.34350 | 38978 ft | 487 kts | 122° |
| 2026-05-05 11:43 | 48.32153 | 20.42923 | 38984 ft | 488 kts | 122° |
| 2026-05-05 11:43 | 48.28552 | 20.51546 | 38991 ft | 487 kts | 122° |
| 2026-05-05 11:44 | 48.24949 | 20.60147 | 38993 ft | 487 kts | 122° |
| 2026-05-05 11:44 | 48.21331 | 20.68757 | 38981 ft | 487 kts | 123° |
| 2026-05-05 11:45 | 48.17743 | 20.77268 | 38973 ft | 486 kts | 123° |
| 2026-05-05 11:45 | 48.14122 | 20.85830 | 38983 ft | 487 kts | 122° |
| 2026-05-05 11:46 | 48.10489 | 20.94393 | 38981 ft | 486 kts | 122° |
| 2026-05-05 11:46 | 48.06859 | 21.02923 | 38982 ft | 487 kts | 122° |
| 2026-05-05 11:47 | 48.03231 | 21.11419 | 38980 ft | 487 kts | 122° |
| 2026-05-05 11:47 | 47.99589 | 21.19925 | 38985 ft | 487 kts | 122° |
| 2026-05-05 11:48 | 47.94117 | 21.32652 | 38979 ft | 488 kts | 122° |
| 2026-05-05 11:48 | 47.90442 | 21.41166 | 38974 ft | 487 kts | 122° |
| 2026-05-05 11:49 | 47.86791 | 21.49597 | 38973 ft | 487 kts | 122° |
| 2026-05-05 11:49 | 47.83098 | 21.58102 | 38981 ft | 487 kts | 122° |
| 2026-05-05 11:50 | 47.79411 | 21.66564 | 38977 ft | 488 kts | 123° |
| 2026-05-05 11:50 | 47.75713 | 21.75024 | 38978 ft | 490 kts | 123° |
| 2026-05-05 11:51 | 47.72007 | 21.83479 | 38991 ft | 489 kts | 122° |
| 2026-05-05 11:51 | 47.68292 | 21.91926 | 39003 ft | 488 kts | 122° |
| 2026-05-05 11:52 | 47.64388 | 22.00128 | 39008 ft | 489 kts | 127° |
| 2026-05-05 11:52 | 47.60198 | 22.08102 | 39005 ft | 489 kts | 127° |
| 2026-05-05 11:53 | 47.56019 | 22.16016 | 39003 ft | 489 kts | 127° |
| 2026-05-05 11:53 | 47.51833 | 22.23916 | 39002 ft | 489 kts | 127° |
| 2026-05-05 11:54 | 47.47638 | 22.31810 | 39001 ft | 489 kts | 127° |
| 2026-05-05 11:54 | 47.43435 | 22.39693 | 39006 ft | 490 kts | 127° |
| 2026-05-05 11:55 | 47.39325 | 22.47703 | 39010 ft | 490 kts | 124° |
| 2026-05-05 11:55 | 47.35326 | 22.55843 | 39013 ft | 489 kts | 124° |
| 2026-05-05 11:56 | 47.31352 | 22.63883 | 39013 ft | 488 kts | 124° |
| 2026-05-05 11:56 | 47.27328 | 22.71983 | 39012 ft | 488 kts | 126° |
| 2026-05-05 11:57 | 47.23330 | 22.79998 | 39013 ft | 488 kts | 126° |
| 2026-05-05 11:57 | 47.19317 | 22.88016 | 39020 ft | 487 kts | 126° |
| 2026-05-05 11:58 | 47.15304 | 22.96008 | 39037 ft | 488 kts | 126° |
| 2026-05-05 11:58 | 47.11261 | 23.04035 | 39034 ft | 487 kts | 126° |
| 2026-05-05 11:59 | 47.07227 | 23.12022 | 39029 ft | 488 kts | 126° |
| 2026-05-05 11:59 | 47.03159 | 23.20051 | 39031 ft | 487 kts | 126° |
| 2026-05-05 12:00 | 46.99113 | 23.28013 | 39028 ft | 487 kts | 125° |
| 2026-05-05 12:00 | 46.95065 | 23.35957 | 39031 ft | 488 kts | 125° |
| 2026-05-05 12:01 | 46.90995 | 23.43918 | 39037 ft | 487 kts | 125° |
| 2026-05-05 12:01 | 46.86951 | 23.51809 | 39033 ft | 487 kts | 125° |
| 2026-05-05 12:02 | 46.82874 | 23.59740 | 39027 ft | 488 kts | 125° |
| 2026-05-05 12:02 | 46.78795 | 23.67654 | 39033 ft | 488 kts | 126° |
| 2026-05-05 12:03 | 46.74720 | 23.75536 | 39037 ft | 488 kts | 126° |
| 2026-05-05 12:03 | 46.70615 | 23.83454 | 39038 ft | 488 kts | 126° |
| 2026-05-05 12:04 | 46.66516 | 23.91340 | 39047 ft | 487 kts | 126° |
| 2026-05-05 12:04 | 46.62437 | 23.99161 | 39039 ft | 487 kts | 126° |
| 2026-05-05 12:05 | 46.58324 | 24.07029 | 39046 ft | 487 kts | 126° |
| 2026-05-05 12:05 | 46.54226 | 24.14844 | 39047 ft | 487 kts | 126° |
| 2026-05-05 12:06 | 46.50122 | 24.22649 | 39045 ft | 487 kts | 126° |
| 2026-05-05 12:06 | 46.46030 | 24.30410 | 39042 ft | 486 kts | 126° |
| 2026-05-05 12:07 | 46.41900 | 24.38221 | 39042 ft | 486 kts | 126° |
| 2026-05-05 12:07 | 46.37805 | 24.45944 | 39042 ft | 485 kts | 126° |
| 2026-05-05 12:08 | 46.33680 | 24.53702 | 39041 ft | 486 kts | 126° |
| 2026-05-05 12:08 | 46.29550 | 24.61448 | 39042 ft | 486 kts | 126° |
| 2026-05-05 12:09 | 46.25415 | 24.69181 | 39041 ft | 485 kts | 126° |
| 2026-05-05 12:09 | 46.21299 | 24.76858 | 39041 ft | 484 kts | 126° |
| 2026-05-05 12:10 | 46.17161 | 24.84555 | 39043 ft | 485 kts | 126° |
| 2026-05-05 12:10 | 46.13030 | 24.92218 | 39046 ft | 484 kts | 126° |
| 2026-05-05 12:11 | 46.08896 | 24.99866 | 39048 ft | 486 kts | 126° |
| 2026-05-05 12:11 | 46.04736 | 25.07540 | 39049 ft | 486 kts | 126° |
| 2026-05-05 12:12 | 46.00591 | 25.15167 | 39048 ft | 485 kts | 126° |
| 2026-05-05 12:12 | 45.96417 | 25.22825 | 39044 ft | 485 kts | 126° |
| 2026-05-05 12:13 | 45.92261 | 25.30429 | 39046 ft | 484 kts | 126° |
| 2026-05-05 12:13 | 45.88117 | 25.37992 | 39047 ft | 484 kts | 126° |
| 2026-05-05 12:14 | 45.83884 | 25.45696 | 39046 ft | 485 kts | 126° |
| 2026-05-05 12:14 | 45.79716 | 25.53261 | 39043 ft | 486 kts | 126° |
| 2026-05-05 12:15 | 45.75527 | 25.60843 | 39045 ft | 485 kts | 126° |
| 2026-05-05 12:15 | 45.71321 | 25.68435 | 39054 ft | 486 kts | 127° |
| 2026-05-05 12:16 | 45.67122 | 25.75995 | 39060 ft | 485 kts | 127° |
| 2026-05-05 12:16 | 45.62920 | 25.83540 | 39065 ft | 483 kts | 126° |
| 2026-05-05 12:17 | 45.58718 | 25.91065 | 39069 ft | 486 kts | 127° |
| 2026-05-05 12:17 | 45.54493 | 25.98610 | 39074 ft | 486 kts | 126° |
| 2026-05-05 12:18 | 45.50287 | 26.06101 | 39074 ft | 485 kts | 126° |
| 2026-05-05 12:18 | 45.46071 | 26.13590 | 39060 ft | 485 kts | 126° |
| 2026-05-05 12:19 | 45.41823 | 26.21116 | 39050 ft | 485 kts | 126° |
| 2026-05-05 12:19 | 45.37596 | 26.28585 | 39045 ft | 484 kts | 126° |
| 2026-05-05 12:20 | 45.33366 | 26.36040 | 39044 ft | 486 kts | 126° |
| 2026-05-05 12:20 | 45.29130 | 26.43485 | 39035 ft | 487 kts | 126° |
| 2026-05-05 12:21 | 45.24852 | 26.50985 | 39036 ft | 487 kts | 126° |
| 2026-05-05 12:21 | 45.20592 | 26.58433 | 39026 ft | 486 kts | 126° |
| 2026-05-05 12:22 | 45.16349 | 26.65832 | 39024 ft | 487 kts | 127° |
| 2026-05-05 12:22 | 45.12073 | 26.73269 | 39035 ft | 487 kts | 127° |
| 2026-05-05 12:23 | 45.07794 | 26.80691 | 39027 ft | 487 kts | 127° |
| 2026-05-05 12:23 | 45.03499 | 26.88122 | 39020 ft | 487 kts | 127° |
| 2026-05-05 12:24 | 44.99223 | 26.95501 | 39023 ft | 488 kts | 127° |
| 2026-05-05 12:24 | 44.94904 | 27.02936 | 39037 ft | 488 kts | 127° |
| 2026-05-05 12:25 | 44.90607 | 27.10312 | 39023 ft | 487 kts | 127° |
| 2026-05-05 12:25 | 44.86307 | 27.17673 | 39025 ft | 486 kts | 127° |
| 2026-05-05 12:26 | 44.81972 | 27.25077 | 39013 ft | 487 kts | 127° |
| 2026-05-05 12:26 | 44.77668 | 27.32407 | 39019 ft | 487 kts | 127° |
| 2026-05-05 12:27 | 44.73335 | 27.39769 | 39021 ft | 487 kts | 127° |
| 2026-05-05 12:27 | 44.68985 | 27.47140 | 39023 ft | 487 kts | 127° |
| 2026-05-05 12:28 | 44.64664 | 27.54443 | 39024 ft | 486 kts | 127° |
| 2026-05-05 12:28 | 44.60320 | 27.61766 | 39035 ft | 486 kts | 127° |
| 2026-05-05 12:29 | 44.55975 | 27.69072 | 39039 ft | 487 kts | 128° |
| 2026-05-05 12:29 | 44.51649 | 27.76327 | 39042 ft | 486 kts | 128° |
| 2026-05-05 12:30 | 44.47306 | 27.83594 | 39029 ft | 487 kts | 128° |
| 2026-05-05 12:30 | 44.42964 | 27.90839 | 39035 ft | 487 kts | 128° |
| 2026-05-05 12:31 | 44.38600 | 27.98100 | 39041 ft | 483 kts | 128° |
| 2026-05-05 12:31 | 44.34262 | 28.05304 | 39052 ft | 488 kts | 128° |
| 2026-05-05 12:32 | 44.29903 | 28.12522 | 39056 ft | 485 kts | 128° |
| 2026-05-05 12:32 | 44.25538 | 28.19732 | 39059 ft | 485 kts | 128° |
| 2026-05-05 12:33 | 44.21188 | 28.26900 | 39056 ft | 485 kts | 128° |
| 2026-05-05 12:33 | 44.16840 | 28.34045 | 39071 ft | 486 kts | 128° |
| 2026-05-05 12:34 | 44.12462 | 28.41224 | 39068 ft | 487 kts | 128° |
| 2026-05-05 12:34 | 44.08063 | 28.48418 | 39069 ft | 487 kts | 128° |
| 2026-05-05 12:35 | 44.03693 | 28.55545 | 39052 ft | 485 kts | 128° |
| 2026-05-05 12:35 | 43.99325 | 28.62653 | 39067 ft | 484 kts | 128° |
| 2026-05-05 12:36 | 43.94947 | 28.69760 | 39065 ft | 485 kts | 129° |
| 2026-05-05 12:36 | 43.90565 | 28.76855 | 39080 ft | 486 kts | 129° |
| 2026-05-05 12:37 | 43.86166 | 28.83960 | 39065 ft | 486 kts | 128° |
| 2026-05-05 12:37 | 43.81771 | 28.91041 | 39076 ft | 487 kts | 129° |
| 2026-05-05 12:38 | 43.77375 | 28.98106 | 39068 ft | 485 kts | 129° |
| 2026-05-05 12:38 | 43.72986 | 29.05144 | 39071 ft | 486 kts | 129° |
| 2026-05-05 12:39 | 43.68564 | 29.12215 | 39073 ft | 486 kts | 129° |
| 2026-05-05 12:39 | 43.64149 | 29.19258 | 39066 ft | 487 kts | 128° |
| 2026-05-05 12:40 | 43.59738 | 29.26278 | 39075 ft | 487 kts | 128° |
| 2026-05-05 12:40 | 43.55307 | 29.33313 | 39071 ft | 488 kts | 128° |
| 2026-05-05 12:41 | 43.50867 | 29.40345 | 39070 ft | 488 kts | 128° |
| 2026-05-05 12:41 | 43.46407 | 29.47391 | 39071 ft | 489 kts | 128° |
| 2026-05-05 12:42 | 43.41966 | 29.54390 | 39066 ft | 488 kts | 128° |
| 2026-05-05 12:42 | 43.37495 | 29.61420 | 39066 ft | 489 kts | 128° |
| 2026-05-05 12:43 | 43.32996 | 29.68475 | 39064 ft | 490 kts | 129° |
| 2026-05-05 12:43 | 43.28518 | 29.75482 | 39065 ft | 491 kts | 129° |
| 2026-05-05 12:44 | 43.24017 | 29.82506 | 39064 ft | 491 kts | 129° |
| 2026-05-05 12:44 | 43.19638 | 29.89324 | 39067 ft | 490 kts | 129° |
| 2026-05-05 12:45 | 43.15139 | 29.96312 | 39070 ft | 492 kts | 129° |
| 2026-05-05 12:45 | 43.10616 | 30.03321 | 39072 ft | 492 kts | 129° |
| 2026-05-05 12:46 | 43.06108 | 30.10290 | 39071 ft | 494 kts | 129° |
| 2026-05-05 12:46 | 43.01529 | 30.17351 | 39055 ft | 495 kts | 129° |
| 2026-05-05 12:47 | 42.96987 | 30.24337 | 39062 ft | 494 kts | 129° |
| 2026-05-05 12:47 | 42.92451 | 30.31298 | 39053 ft | 494 kts | 129° |
| 2026-05-05 12:48 | 42.87872 | 30.38309 | 39053 ft | 495 kts | 129° |
| 2026-05-05 12:48 | 42.83310 | 30.45276 | 39046 ft | 495 kts | 129° |
| 2026-05-05 12:49 | 42.78713 | 30.52280 | 39026 ft | 496 kts | 129° |
| 2026-05-05 12:49 | 42.74617 | 30.59722 | 39041 ft | 492 kts | 115° |
| 2026-05-05 12:50 | 42.72320 | 30.68347 | 39016 ft | 484 kts | 97° |
| 2026-05-05 12:50 | 42.71602 | 30.77425 | 39050 ft | 483 kts | 92° |
| 2026-05-05 12:51 | 42.70916 | 30.86369 | 39017 ft | 480 kts | 93° |
| 2026-05-05 12:51 | 42.70112 | 30.95384 | 39036 ft | 482 kts | 94° |
| 2026-05-05 12:52 | 42.69243 | 31.04389 | 39051 ft | 482 kts | 94° |
| 2026-05-05 12:52 | 42.68339 | 31.13368 | 39017 ft | 482 kts | 94° |
| 2026-05-05 12:53 | 42.67411 | 31.22354 | 39016 ft | 484 kts | 94° |
| 2026-05-05 12:53 | 42.66465 | 31.31364 | 39023 ft | 483 kts | 94° |
| 2026-05-05 12:54 | 42.65026 | 31.44849 | 39023 ft | 482 kts | 95° |
| 2026-05-05 12:55 | 42.64055 | 31.53838 | 39003 ft | 481 kts | 95° |
| 2026-05-05 12:55 | 42.63082 | 31.62780 | 39013 ft | 482 kts | 95° |
| 2026-05-05 12:56 | 42.62096 | 31.71760 | 39014 ft | 483 kts | 95° |
| 2026-05-05 12:56 | 42.61106 | 31.80713 | 39007 ft | 482 kts | 95° |
| 2026-05-05 12:57 | 42.60104 | 31.89700 | 39006 ft | 482 kts | 95° |
| 2026-05-05 12:57 | 42.59102 | 31.98629 | 39004 ft | 482 kts | 95° |
| 2026-05-05 12:58 | 42.58101 | 32.07613 | 39015 ft | 482 kts | 95° |
| 2026-05-05 12:58 | 42.57081 | 32.16583 | 39013 ft | 482 kts | 96° |
| 2026-05-05 12:59 | 42.56057 | 32.25504 | 39019 ft | 482 kts | 96° |
| 2026-05-05 12:59 | 42.55019 | 32.34487 | 39036 ft | 482 kts | 96° |
| 2026-05-05 13:00 | 42.53462 | 32.47852 | 39011 ft | 483 kts | 96° |
| 2026-05-05 13:01 | 42.51350 | 32.65747 | 38999 ft | 482 kts | 97° |
| 2026-05-05 13:01 | 42.50280 | 32.74725 | 39015 ft | 483 kts | 97° |
| 2026-05-05 13:02 | 42.49211 | 32.83627 | 39013 ft | 483 kts | 97° |
| 2026-05-05 13:02 | 42.48130 | 32.92581 | 39013 ft | 483 kts | 97° |
| 2026-05-05 13:03 | 42.47044 | 33.01507 | 39025 ft | 483 kts | 97° |
| 2026-05-05 13:03 | 42.45950 | 33.10441 | 39021 ft | 483 kts | 97° |
| 2026-05-05 13:04 | 42.44847 | 33.19375 | 39016 ft | 482 kts | 97° |
| 2026-05-05 13:04 | 42.43740 | 33.28281 | 39025 ft | 483 kts | 97° |
| 2026-05-05 13:05 | 42.42623 | 33.37204 | 39013 ft | 482 kts | 97° |
| 2026-05-05 13:05 | 42.41499 | 33.46140 | 39020 ft | 482 kts | 97° |
| 2026-05-05 13:06 | 42.40373 | 33.55034 | 39015 ft | 482 kts | 97° |
| 2026-05-05 13:06 | 42.39236 | 33.63951 | 39024 ft | 482 kts | 98° |
| 2026-05-05 13:07 | 42.38092 | 33.72872 | 39023 ft | 483 kts | 98° |
| 2026-05-05 13:07 | 42.36946 | 33.81748 | 39021 ft | 483 kts | 98° |
| 2026-05-05 13:08 | 42.35790 | 33.90648 | 39027 ft | 483 kts | 98° |
| 2026-05-05 13:08 | 42.34627 | 33.99574 | 39016 ft | 483 kts | 98° |
| 2026-05-05 13:09 | 42.33460 | 34.08485 | 39020 ft | 482 kts | 98° |
| 2026-05-05 13:09 | 42.32290 | 34.17362 | 39019 ft | 482 kts | 98° |
| 2026-05-05 13:10 | 42.31112 | 34.26235 | 39017 ft | 483 kts | 98° |
| 2026-05-05 13:10 | 42.29924 | 34.35136 | 39012 ft | 484 kts | 98° |
| 2026-05-05 13:11 | 42.28724 | 34.44066 | 39023 ft | 484 kts | 99° |
| 2026-05-05 13:11 | 42.27513 | 34.53008 | 39016 ft | 484 kts | 99° |
| 2026-05-05 13:12 | 42.26302 | 34.61901 | 39018 ft | 483 kts | 99° |
| 2026-05-05 13:12 | 42.25085 | 34.70780 | 39021 ft | 484 kts | 100° |
| 2026-05-05 13:13 | 42.23857 | 34.79687 | 39027 ft | 484 kts | 100° |
| 2026-05-05 13:13 | 42.22620 | 34.88587 | 39032 ft | 484 kts | 100° |
| 2026-05-05 13:14 | 42.21374 | 34.97497 | 39030 ft | 484 kts | 100° |
| 2026-05-05 13:14 | 42.20130 | 35.06334 | 39028 ft | 484 kts | 100° |
| 2026-05-05 13:15 | 42.18870 | 35.15241 | 39036 ft | 484 kts | 100° |
| 2026-05-05 13:15 | 42.17607 | 35.24112 | 39026 ft | 484 kts | 100° |
| 2026-05-05 13:16 | 42.16339 | 35.32969 | 39026 ft | 484 kts | 100° |
| 2026-05-05 13:16 | 42.15058 | 35.41861 | 39023 ft | 484 kts | 100° |
| 2026-05-05 13:17 | 42.13776 | 35.50737 | 39029 ft | 486 kts | 100° |
| 2026-05-05 13:17 | 42.12487 | 35.59610 | 39028 ft | 485 kts | 100° |
| 2026-05-05 13:18 | 42.11193 | 35.68473 | 39031 ft | 484 kts | 101° |
| 2026-05-05 13:18 | 42.09886 | 35.77366 | 39023 ft | 484 kts | 101° |
| 2026-05-05 13:19 | 42.08579 | 35.86211 | 39021 ft | 487 kts | 101° |
| 2026-05-05 13:19 | 42.07250 | 35.95157 | 39011 ft | 486 kts | 101° |
| 2026-05-05 13:20 | 42.05925 | 36.04024 | 39012 ft | 486 kts | 101° |
| 2026-05-05 13:20 | 42.04591 | 36.12900 | 39011 ft | 485 kts | 101° |
| 2026-05-05 13:21 | 42.03258 | 36.21719 | 39011 ft | 485 kts | 101° |
| 2026-05-05 13:21 | 42.01911 | 36.30585 | 39013 ft | 485 kts | 101° |
| 2026-05-05 13:22 | 42.00563 | 36.39414 | 39011 ft | 486 kts | 101° |
| 2026-05-05 13:22 | 41.99202 | 36.48271 | 39013 ft | 486 kts | 102° |
| 2026-05-05 13:23 | 41.97830 | 36.57160 | 39010 ft | 485 kts | 102° |
| 2026-05-05 13:23 | 41.96456 | 36.66008 | 39011 ft | 485 kts | 102° |
| 2026-05-05 13:24 | 41.95083 | 36.74804 | 39014 ft | 484 kts | 102° |
| 2026-05-05 13:24 | 41.93698 | 36.83626 | 39011 ft | 484 kts | 102° |
| 2026-05-05 13:25 | 41.92304 | 36.92461 | 39011 ft | 486 kts | 102° |
| 2026-05-05 13:25 | 41.90903 | 37.01293 | 39010 ft | 486 kts | 103° |
| 2026-05-05 13:26 | 41.88713 | 37.09803 | 39016 ft | 485 kts | 113° |
| 2026-05-05 13:26 | 41.86102 | 37.18156 | 39008 ft | 484 kts | 113° |
| 2026-05-05 13:27 | 41.83506 | 37.26407 | 39008 ft | 485 kts | 113° |
| 2026-05-05 13:27 | 41.80887 | 37.34701 | 39007 ft | 485 kts | 113° |
| 2026-05-05 13:28 | 41.78248 | 37.43028 | 39007 ft | 484 kts | 114° |
| 2026-05-05 13:28 | 41.75631 | 37.51261 | 39015 ft | 485 kts | 114° |
| 2026-05-05 13:29 | 41.72979 | 37.59572 | 39012 ft | 484 kts | 114° |
| 2026-05-05 13:29 | 41.70350 | 37.67790 | 39012 ft | 484 kts | 115° |
| 2026-05-05 13:30 | 41.67696 | 37.76064 | 39011 ft | 485 kts | 115° |
| 2026-05-05 13:30 | 41.65041 | 37.84320 | 39016 ft | 485 kts | 115° |
| 2026-05-05 13:31 | 41.62371 | 37.92594 | 39010 ft | 485 kts | 115° |
| 2026-05-05 13:31 | 41.59713 | 38.00804 | 39014 ft | 486 kts | 115° |
| 2026-05-05 13:32 | 41.57036 | 38.09051 | 39010 ft | 485 kts | 115° |
| 2026-05-05 13:32 | 41.54345 | 38.17316 | 39014 ft | 486 kts | 115° |
| 2026-05-05 13:33 | 41.51666 | 38.25518 | 39012 ft | 485 kts | 115° |
| 2026-05-05 13:33 | 41.48959 | 38.33781 | 39008 ft | 486 kts | 115° |
| 2026-05-05 13:34 | 41.46257 | 38.42004 | 39007 ft | 486 kts | 115° |
| 2026-05-05 13:34 | 41.43555 | 38.50202 | 39008 ft | 486 kts | 115° |
| 2026-05-05 13:35 | 41.40847 | 38.58396 | 39012 ft | 486 kts | 115° |
| 2026-05-05 13:35 | 41.38120 | 38.66620 | 39011 ft | 486 kts | 116° |
| 2026-05-05 13:36 | 41.35393 | 38.74820 | 39011 ft | 486 kts | 116° |